Flight Track Log - Related Links

Times and Time Zones

All times are in EDT time to prevent confusion due to time zone crossing. See the FDX40 flight status page for this flight to view local times or setup timezone preferences in your user account.

Time Position Orientation Groundspeed Altitude Reporting Facility
EDT Latitude Longitude Course Direction KTS MPH feet Rate Location/Type
Thu 04:35:44 AM 35.0167 -89.9667 180° South 210 242 1,300  Level KMEM
Thu 04:36:02 AM 35.0000 -89.9667 180° South 186 214 1,800 1,385 Climbing KMEM
Thu 04:37:02 AM 34.9500 -89.9500 165° South 236 272 3,100 1,947 Climbing KMEM
Thu 04:37:56 AM 34.9167 -89.8833 121° Southeast 277 319 5,500 2,850 Climbing KMEM
Thu 04:39:02 AM 34.8833 -89.7833 112° Southeast 276 318 8,800 2,857 Climbing KMEM
Thu 04:39:20 AM 34.8806 -89.7547 97° East 283 326 9,500 1,923 Climbing Memphis Center
Thu 04:40:20 AM 34.8467 -89.6586 113° Southeast 333 383 11,300 1,650 Climbing Memphis Center
Thu 04:41:20 AM 34.8022 -89.5428 115° Southeast 345 397 12,800 1,750 Climbing Memphis Center
Thu 04:42:20 AM 34.7639 -89.4242 111° Southeast 390 449 14,800 2,250 Climbing Memphis Center
Thu 04:43:20 AM 34.7169 -89.2883 113° Southeast 422 486 17,300 2,250 Climbing Memphis Center
Thu 04:44:20 AM 34.6367 -89.1733 130° Southeast 435 501 19,300 2,050 Climbing Memphis Center
Thu 04:45:20 AM 34.5456 -89.0611 135° Southeast 463 533 21,400 1,900 Climbing Memphis Center
Thu 04:46:20 AM 34.4483 -88.9417 135° Southeast 483 556 23,100 1,650 Climbing Memphis Center
Thu 04:47:20 AM 34.3425 -88.8178 136° Southeast 488 562 24,700 1,750 Climbing Memphis Center
Thu 04:48:20 AM 34.2450 -88.6964 134° Southeast 488 562 26,600 1,800 Climbing Memphis Center
Thu 04:49:20 AM 34.1431 -88.5753 135° Southeast 493 567 28,300 1,750 Climbing Memphis Center
Thu 04:50:20 AM 34.0433 -88.4544 135° Southeast 493 567 30,100 1,350 Climbing Memphis Center
Thu 04:51:20 AM 33.9433 -88.3367 136° Southeast 499 574 31,000 450 Climbing Memphis Center
Thu 04:52:20 AM 33.8475 -88.2164 134° Southeast 499 574 31,000  Level Memphis Center
Thu 04:53:20 AM 33.7472 -88.0964 135° Southeast 504 580 31,000  Level Memphis Center
Thu 04:55:25 AM 33.5511 -87.8650 135° Southeast 493 567 31,000  Level Atlanta Center
Thu 04:56:25 AM 33.4525 -87.7486 135° Southeast 500 575 31,000  Level Atlanta Center
Thu 04:57:25 AM 33.3536 -87.6300 135° Southeast 500 575 31,000  Level Atlanta Center
Thu 04:58:25 AM 33.2547 -87.5117 135° Southeast 500 575 31,000  Level Atlanta Center
Thu 04:59:25 AM 33.1556 -87.3983 136° Southeast 500 575 31,000  Level Atlanta Center
Thu 05:00:25 AM 33.0564 -87.2831 136° Southeast 500 575 31,000  Level Atlanta Center
Thu 05:01:25 AM 32.9511 -87.1578 135° Southeast 489 563 31,000  Level Atlanta Center
Thu 05:02:25 AM 32.8519 -87.0406 135° Southeast 489 563 31,000  Level Atlanta Center
Thu 05:04:00 AM 32.6986 -86.8644 136° Southeast  Level FlightAware Approximate
Thu 05:06:25 AM 32.4550 -86.5867 134° Southeast 486 559 31,000  Level Atlanta Center
Thu 05:07:25 AM 32.3550 -86.4706 136° Southeast 491 565 31,000  Level Atlanta Center
Thu 05:08:25 AM 32.2489 -86.3522 137° Southeast 505 581 31,000  Level Atlanta Center
Thu 05:09:25 AM 32.1550 -86.2394 135° Southeast 505 581 31,000  Level Atlanta Center
Thu 05:10:25 AM 32.0586 -86.1292 136° Southeast 509 586 31,000  Level Atlanta Center
Thu 05:11:00 AM 32.0248 -86.0840 134° Southeast  Level FlightAware Approximate
Thu 05:11:25 AM 31.9503 -86.0044 136° Southeast 515 593 31,000  Level Atlanta Center
Thu 05:12:19 AM 31.8636 -85.8964 133° Southeast 497 572 31,000  Level Jacksonville Center
Thu 05:13:19 AM 31.7642 -85.7783 135° Southeast 502 578 31,000  Level Jacksonville Center
Thu 05:14:19 AM 31.6664 -85.6656 136° Southeast 502 578 31,000  Level Jacksonville Center
Thu 05:15:19 AM 31.5644 -85.5550 137° Southeast 502 578 31,000  Level Jacksonville Center
Thu 05:16:19 AM 31.4603 -85.4450 138° Southeast 502 578 31,000  Level Jacksonville Center
Thu 05:17:19 AM 31.3600 -85.3328 136° Southeast 497 572 31,000  Level Jacksonville Center
Thu 05:18:19 AM 31.2722 -85.2381 137° Southeast 494 568 31,000  Level Jacksonville Center
Thu 05:19:19 AM 31.1697 -85.1264 137° Southeast 494 568 31,000  Level Jacksonville Center
Thu 05:20:19 AM 31.0672 -85.0172 138° Southeast 494 568 31,000  Level Jacksonville Center
Thu 05:26:07 AM 30.4660 -84.3790 138° Southeast 494 568 31,000  Level FlightAware ADS-B
Thu 05:26:47 AM 30.4010 -84.3100 138° Southeast 495 570 31,000  Level FlightAware ADS-B
Thu 05:28:47 AM 30.1990 -84.0960 137° Southeast 497 572 31,000  Level FlightAware ADS-B
Thu 05:29:32 AM 30.1240 -84.0200 139° Southeast 498 573 31,000  Level FlightAware ADS-B
Thu 05:30:12 AM 30.0670 -83.9580 137° Southeast 498 573 31,000  Level FlightAware ADS-B
Thu 05:31:02 AM 29.9950 -83.8810 137° Southeast 498 573 31,000  Level FlightAware ADS-B
Thu 05:31:42 AM 29.9380 -83.8190 137° Southeast 498 573 31,000  Level FlightAware ADS-B
Thu 05:32:22 AM 29.8810 -83.7570 137° Southeast 498 573 31,000  Level FlightAware ADS-B
Thu 05:32:57 AM 29.7680 -83.6520 141° Southeast 31,000  Level FlightAware ADS-B
Thu 05:33:47 AM 29.6820 -83.5620 138° Southeast 492 566 31,000  Level FlightAware ADS-B
Thu 05:34:32 AM 29.6050 -83.4830 138° Southeast 494 568 31,000  Level FlightAware ADS-B
Thu 05:35:12 AM 29.5350 -83.4130 139° Southeast 494 568 31,000 75 Level FlightAware ADS-B
Thu 05:35:52 AM 29.4680 -83.3440 138° Southeast 484 557 31,100  Climbing FlightAware ADS-B
Thu 05:36:37 AM 29.3910 -83.2660 139° Southeast 479 551 31,000 -71 Descending FlightAware ADS-B
Thu 05:37:17 AM 29.3250 -83.1970 138° Southeast 476 548 31,000  Level FlightAware ADS-B
Thu 05:38:02 AM 29.2490 -83.1210 139° Southeast 479 551 31,000  Level FlightAware ADS-B
Thu 05:38:42 AM 29.1820 -83.0520 138° Southeast 477 549 31,000  Level FlightAware ADS-B
Thu 05:39:22 AM 29.1160 -82.9850 138° Southeast 479 551 31,000  Level FlightAware ADS-B
Thu 05:40:07 AM 29.0430 -82.9120 139° Southeast 480 552 31,000 71 Level FlightAware ADS-B
Thu 05:40:47 AM 28.9730 -82.8400 138° Southeast 489 563 31,100 80 Climbing FlightAware ADS-B
Thu 05:41:22 AM 28.9200 -82.7870 139° Southeast 492 566 31,100  Level FlightAware ADS-B
Thu 05:42:12 AM 28.8280 -82.6940 138° Southeast 491 565 31,100 -67 Level FlightAware ADS-B
Thu 05:42:52 AM 28.7580 -82.6240 139° Southeast 483 556 31,000 -71 Descending FlightAware ADS-B
Thu 05:43:37 AM 28.6830 -82.5490 139° Southeast 493 567 31,000  Level FlightAware ADS-B
Thu 05:44:17 AM 28.6130 -82.4780 138° Southeast 495 570 31,000  Level FlightAware ADS-B
Thu 05:45:02 AM 28.5370 -82.4020 139° Southeast 495 570 31,000  Level FlightAware ADS-B
Thu 05:45:42 AM 28.4650 -82.3320 139° Southeast 497 572 31,000  Level FlightAware ADS-B
Thu 05:46:22 AM 28.3950 -82.2630 139° Southeast 497 572 31,000  Level FlightAware ADS-B
Thu 05:47:07 AM 28.3190 -82.1870 139° Southeast 496 571 31,000  Level FlightAware ADS-B
Thu 05:47:47 AM 28.2490 -82.1170 139° Southeast 493 567 31,000  Level FlightAware ADS-B
Thu 05:48:27 AM 28.1800 -82.0490 139° Southeast 491 565 31,000  Level FlightAware ADS-B
Thu 05:49:12 AM 28.1030 -81.9730 139° Southeast 489 563 31,000  Level FlightAware ADS-B
Thu 05:49:52 AM 28.0370 -81.9070 139° Southeast 488 562 31,000  Level FlightAware ADS-B
Thu 05:50:37 AM 27.9570 -81.8300 140° Southeast 489 563 31,000  Level FlightAware ADS-B
Thu 05:51:17 AM 27.8880 -81.7610 139° Southeast 491 565 31,000  Level FlightAware ADS-B
Thu 05:52:02 AM 27.8110 -81.6870 140° Southeast 492 566 31,000 71 Level FlightAware ADS-B
Thu 05:52:42 AM 27.7450 -81.6210 138° Southeast 494 568 31,100 75 Climbing FlightAware ADS-B
Thu 05:53:22 AM 27.6730 -81.5510 139° Southeast 495 570 31,100  Level FlightAware ADS-B
Thu 05:54:07 AM 27.5960 -81.4770 140° Southeast 496 571 31,100 141 Level FlightAware ADS-B
Thu 05:54:47 AM 27.5240 -81.4060 139° Southeast 491 565 31,300 847 Climbing FlightAware ADS-B
Thu 05:55:32 AM 27.4480 -81.3320 139° Southeast 487 560 32,300 1,200 Climbing FlightAware ADS-B
Thu 05:56:12 AM 27.3790 -81.2660 140° Southeast 489 563 33,000 525 Climbing FlightAware ADS-B
Thu 05:56:52 AM 27.3110 -81.1990 139° Southeast 493 567 33,000  Level FlightAware ADS-B
Thu 05:57:37 AM 27.2340 -81.1250 139° Southeast 493 567 33,000  Level FlightAware ADS-B
Thu 05:58:17 AM 27.1650 -81.0590 140° Southeast 493 567 33,000  Level FlightAware ADS-B
Thu 05:58:57 AM 27.0970 -80.9930 139° Southeast 487 560 33,000  Level FlightAware ADS-B
Thu 05:59:42 AM 27.0250 -80.9240 140° Southeast 486 559 33,000  Level FlightAware ADS-B
Thu 06:01:07 AM 26.8690 -80.7760 140° Southeast 492 566 33,000  Level FlightAware ADS-B
Thu 06:02:17 AM 26.7510 -80.6510 137° Southeast 502 578 33,000  Level FlightAware ADS-B
Thu 06:03:27 AM 26.6450 -80.5140 131° Southeast 498 573 33,000  Level FlightAware ADS-B
Thu 06:04:32 AM 26.5480 -80.3880 131° Southeast 499 574 33,000  Level FlightAware ADS-B
Thu 06:06:57 AM 26.3240 -80.0960 131° Southeast 501 577 33,000  Level FlightAware ADS-B
Thu 06:08:12 AM 26.2090 -79.9480 131° Southeast 501 577 33,000  Level FlightAware ADS-B
Thu 06:09:22 AM 26.1020 -79.8120 131° Southeast 498 573 33,000  Level FlightAware ADS-B
Thu 06:10:42 AM 25.9800 -79.6540 131° Southeast 499 574 33,000  Level FlightAware ADS-B
Thu 06:11:22 AM 25.9200 -79.5780 131° Southeast 491 565 33,000  Level FlightAware ADS-B
Thu 06:12:07 AM 25.8520 -79.4930 132° Southeast 503 579 33,000  Level FlightAware ADS-B
Thu 06:12:42 AM 25.7990 -79.4240 130° Southeast 511 588 33,000  Level FlightAware ADS-B
Thu 06:13:27 AM 25.7330 -79.3410 131° Southeast 505 581 33,000  Level FlightAware ADS-B
Thu 06:14:07 AM 25.6710 -79.2610 131° Southeast 514 592 33,000  Level FlightAware ADS-B
Thu 06:14:52 AM 25.6000 -79.1730 132° Southeast 513 590 33,000  Level FlightAware ADS-B
Thu 06:15:32 AM 25.5370 -79.0930 131° Southeast 515 593 33,000  Level FlightAware ADS-B
Thu 06:16:12 AM 25.4730 -79.0120 131° Southeast 519 597 33,000  Level FlightAware ADS-B
Thu 06:16:57 AM 25.4020 -78.9220 131° Southeast 513 590 33,000  Level FlightAware ADS-B
Thu 06:17:42 AM 25.3300 -78.8320 132° Southeast 511 588 33,000  Level FlightAware ADS-B
Thu 06:18:22 AM 25.2650 -78.7510 132° Southeast 517 595 33,000  Level FlightAware ADS-B
Thu 06:18:57 AM 25.2140 -78.6870 131° Southeast 518 596 33,000  Level FlightAware ADS-B
Thu 06:19:47 AM 25.1330 -78.5860 132° Southeast 514 592 33,000  Level FlightAware ADS-B
Thu 06:20:27 AM 25.0670 -78.5030 131° Southeast 515 593 33,000  Level FlightAware ADS-B
Thu 06:21:02 AM 25.0090 -78.4310 132° Southeast 517 595 33,000  Level FlightAware ADS-B
Thu 06:21:52 AM 24.9380 -78.3400 131° Southeast 519 597 33,000  Level FlightAware ADS-B
Thu 06:22:32 AM 24.8860 -78.2720 130° Southeast 519 597 33,000  Level FlightAware ADS-B
Thu 06:23:12 AM 24.8330 -78.2030 130° Southeast 519 597 33,000  Level FlightAware ADS-B
Thu 06:23:52 AM 24.7810 -78.1340 130° Southeast 519 597 33,000  Level FlightAware ADS-B
Thu 06:24:42 AM 24.7150 -78.0480 130° Southeast 519 597 33,000  Level FlightAware ADS-B
Thu 06:25:22 AM 24.6630 -77.9790 130° Southeast 519 597 33,000  Level FlightAware ADS-B
Thu 06:26:02 AM 24.6100 -77.9100 130° Southeast 519 597 33,000  Level FlightAware ADS-B
Thu 06:26:42 AM 24.5580 -77.8410 130° Southeast 519 597 33,000  Level FlightAware ADS-B
Thu 06:27:22 AM 24.5050 -77.7730 131° Southeast 519 597 33,000  Level FlightAware ADS-B
Thu 06:28:12 AM 24.4400 -77.6870 130° Southeast 519 597 33,000  Level FlightAware ADS-B
Thu 06:28:52 AM 24.3870 -77.6180 130° Southeast 519 597 33,000  Level FlightAware ADS-B
Thu 06:29:32 AM 24.3350 -77.5490 130° Southeast 519 597 33,000  Level FlightAware ADS-B
Thu 06:30:12 AM 24.2820 -77.4810 131° Southeast 519 597 33,000  Level FlightAware ADS-B
Thu 06:30:52 AM 24.2300 -77.4120 130° Southeast 519 597 33,000  Level FlightAware ADS-B
Thu 06:31:57 AM 23.9378 -77.1339 130° Southeast 520 598 33,000  Level Miami Center
Thu 06:32:57 AM 23.8397 -77.0156 132° Southeast 520 598 33,000  Level Miami Center
Thu 06:33:57 AM 23.7417 -76.8953 132° Southeast 520 598 33,000  Level Miami Center
Thu 06:34:57 AM 23.6517 -76.7728 129° Southeast 525 604 33,000  Level Miami Center
Thu 06:35:57 AM 23.5639 -76.6458 127° Southeast 525 604 33,000 -50 Level Miami Center
Thu 06:36:57 AM 23.4694 -76.5281 131° Southeast 520 598 32,900  Descending Miami Center
Thu 06:37:57 AM 23.3669 -76.4131 134° Southeast 520 598 33,000 50 Climbing Miami Center
Thu 06:38:57 AM 23.2683 -76.3025 134° Southeast 515 593 33,000  Level Miami Center
Thu 06:39:57 AM 23.1675 -76.1878 134° Southeast 515 593 33,000  Level Miami Center
Thu 06:40:57 AM 23.0689 -76.0753 134° Southeast 515 593 33,000  Level Miami Center
Thu 06:41:57 AM 22.9678 -75.9631 134° Southeast 515 593 33,000  Level Miami Center
Thu 06:42:57 AM 22.8794 -75.8578 132° Southeast 520 598 33,000  Level Miami Center
Thu 06:43:57 AM 22.7783 -75.7436 134° Southeast 520 598 33,000  Level Miami Center
Thu 06:44:57 AM 22.6750 -75.6275 134° Southeast 525 604 33,000  Level Miami Center
Thu 06:45:57 AM 22.5739 -75.5139 134° Southeast 525 604 33,000  Level Miami Center
Thu 06:46:57 AM 22.4703 -75.3981 134° Southeast 525 604 33,000  Level Miami Center
Thu 06:47:57 AM 22.3667 -75.2800 133° Southeast 530 610 33,000  Level Miami Center
Thu 06:48:57 AM 22.2675 -75.1692 134° Southeast 524 603 33,000  Level Miami Center
Thu 06:49:57 AM 22.1636 -75.0539 134° Southeast 524 603 33,000  Level Miami Center
Thu 06:50:57 AM 22.0539 -74.9522 139° Southeast 524 603 33,000  Level Miami Center
Thu 06:51:57 AM 21.9397 -74.8464 139° Southeast 524 603 33,000  Level Miami Center
Thu 06:52:57 AM 21.8275 -74.7408 139° Southeast 529 609 33,000  Level Miami Center
Thu 06:53:57 AM 21.7006 -74.6267 140° Southeast 536 617 33,000  Level Miami Center
Thu 06:54:57 AM 21.5992 -74.5344 140° Southeast 536 617 33,000 -50 Level Miami Center
Thu 06:55:57 AM 21.4867 -74.4294 139° Southeast 536 617 32,900 -50 Descending Miami Center
Thu 06:56:57 AM 21.3725 -74.3267 140° Southeast 536 617 32,900 50 Level Miami Center
Thu 06:57:57 AM 21.2558 -74.2219 140° Southeast 536 617 33,000 50 Climbing Miami Center
Thu 06:58:57 AM 21.1392 -74.1175 140° Southeast 536 617 33,000  Level Miami Center
Thu 06:59:57 AM 21.0267 -74.0153 140° Southeast 536 617 33,000 -50 Level Miami Center
Thu 07:00:57 AM 20.9183 -73.9156 139° Southeast 527 606 32,900 -50 Descending Miami Center
Thu 07:01:57 AM 20.8036 -73.8114 140° Southeast 527 606 32,900  Level Miami Center
Thu 07:02:57 AM 20.6911 -73.7097 140° Southeast 527 606 32,900 50 Level Miami Center
Thu 07:03:57 AM 20.5783 -73.6103 140° Southeast 532 612 33,000 50 Climbing Miami Center
Thu 07:04:57 AM 20.4636 -73.5089 140° Southeast 532 612 33,000  Level Miami Center
Thu 07:05:57 AM 20.3528 -73.4078 139° Southeast 532 612 33,000  Level Miami Center
Thu 07:06:57 AM 20.2381 -73.3089 141° Southeast 532 612 33,000 -50 Level Miami Center
Thu 07:07:57 AM 20.1292 -73.2081 139° Southeast 532 612 32,900 Descending Miami Center
Thu 07:09:00 AM 20.0134 -73.1219 142° Southeast  Level FlightAware Approximate
Thu 07:16:00 AM 19.2721 -72.5040 142° Southeast  Level FlightAware Approximate
Thu 07:17:00 AM 19.1660 -72.4162 142° Southeast  Level FlightAware Approximate
Thu 07:18:00 AM 19.0599 -72.3285 142° Southeast  Level FlightAware Approximate
Thu 07:19:00 AM 18.9538 -72.2409 142° Southeast  Level FlightAware Approximate
Thu 07:20:00 AM 18.8476 -72.1534 142° Southeast  Level FlightAware Approximate
Thu 07:21:00 AM 18.7414 -72.0660 142° Southeast  Level FlightAware Approximate
Thu 07:22:00 AM 18.6351 -71.9788 142° Southeast  Level FlightAware Approximate
Thu 07:23:00 AM 18.5346 -71.8846 137° Southeast  Level FlightAware Approximate
Thu 07:24:00 AM 18.4251 -71.8025 146° Southeast  Level FlightAware Approximate
Thu 07:25:00 AM 18.3137 -71.7228 145° Southeast  Level FlightAware Approximate
Thu 07:26:00 AM 18.2048 -71.6395 144° Southeast  Level FlightAware Approximate
Thu 07:27:00 AM 18.0961 -71.5558 144° Southeast  Level FlightAware Approximate
Thu 07:28:00 AM 17.9874 -71.4723 144° Southeast  Level FlightAware Approximate
Thu 07:29:00 AM 17.8787 -71.3888 144° Southeast  Level FlightAware Approximate
Thu 07:30:00 AM 17.7699 -71.3055 144° Southeast  Level FlightAware Approximate
Thu 07:31:00 AM 17.6611 -71.2223 144° Southeast  Level FlightAware Approximate
Thu 07:32:00 AM 17.5523 -71.1391 144° Southeast  Level FlightAware Approximate
Thu 07:33:00 AM 17.4434 -71.0561 144° Southeast  Level FlightAware Approximate
Thu 07:34:00 AM 17.3345 -70.9731 144° Southeast  Level FlightAware Approximate
Thu 07:35:00 AM 17.2255 -70.8903 144° Southeast  Level FlightAware Approximate
Thu 07:36:00 AM 17.1166 -70.8075 144° Southeast  Level FlightAware Approximate
Thu 07:37:00 AM 17.0075 -70.7249 144° Southeast  Level FlightAware Approximate
Thu 07:38:00 AM 16.8985 -70.6424 144° Southeast  Level FlightAware Approximate
Thu 07:39:00 AM 16.7894 -70.5599 144° Southeast  Level FlightAware Approximate
Thu 07:40:00 AM 16.6803 -70.4775 144° Southeast  Level FlightAware Approximate
Thu 07:41:00 AM 16.5712 -70.3953 144° Southeast  Level FlightAware Approximate
Thu 07:42:00 AM 16.4620 -70.3131 144° Southeast  Level FlightAware Approximate
Thu 07:43:00 AM 16.3528 -70.2310 144° Southeast  Level FlightAware Approximate
Thu 07:44:00 AM 16.2435 -70.1490 144° Southeast  Level FlightAware Approximate
Thu 07:45:00 AM 16.1343 -70.0671 144° Southeast  Level FlightAware Approximate
Thu 07:46:00 AM 16.0250 -69.9853 144° Southeast  Level FlightAware Approximate
Thu 07:47:00 AM 15.9157 -69.9035 144° Southeast  Level FlightAware Approximate
Thu 07:48:00 AM 15.8064 -69.8218 144° Southeast  Level FlightAware Approximate
Thu 07:49:00 AM 15.6971 -69.7402 144° Southeast  Level FlightAware Approximate
Thu 07:50:00 AM 15.5877 -69.6586 144° Southeast  Level FlightAware Approximate
Thu 07:51:00 AM 15.4783 -69.5772 144° Southeast  Level FlightAware Approximate
Thu 07:52:00 AM 15.3689 -69.4958 144° Southeast  Level FlightAware Approximate
Thu 07:53:00 AM 15.2595 -69.4145 144° Southeast  Level FlightAware Approximate
Thu 07:54:00 AM 15.1500 -69.3333 144° Southeast  Level FlightAware Approximate
Thu 07:55:00 AM 15.0405 -69.2522 144° Southeast  Level FlightAware Approximate
Thu 07:56:00 AM 14.9310 -69.1711 144° Southeast  Level FlightAware Approximate
Thu 07:57:00 AM 14.8214 -69.0901 144° Southeast  Level FlightAware Approximate
Thu 07:58:00 AM 14.7119 -69.0093 144° Southeast  Level FlightAware Approximate
Thu 07:59:00 AM 14.6022 -68.9285 144° Southeast  Level FlightAware Approximate
Thu 08:00:00 AM 14.4926 -68.8477 145° Southeast  Level FlightAware Approximate
Thu 08:01:00 AM 14.3829 -68.7671 145° Southeast  Level FlightAware Approximate
Thu 08:02:00 AM 14.2732 -68.6865 145° Southeast  Level FlightAware Approximate
Thu 08:03:00 AM 14.1635 -68.6061 145° Southeast  Level FlightAware Approximate
Thu 08:04:00 AM 14.0537 -68.5257 145° Southeast  Level FlightAware Approximate
Thu 08:05:00 AM 13.9440 -68.4454 145° Southeast  Level FlightAware Approximate
Thu 08:06:00 AM 13.8342 -68.3651 145° Southeast  Level FlightAware Approximate
Thu 08:07:00 AM 13.7243 -68.2849 145° Southeast  Level FlightAware Approximate
Thu 08:08:00 AM 13.6145 -68.2048 145° Southeast  Level FlightAware Approximate
Thu 08:09:00 AM 13.5046 -68.1248 145° Southeast  Level FlightAware Approximate
Thu 08:10:00 AM 13.3947 -68.0449 145° Southeast  Level FlightAware Approximate
Thu 08:11:00 AM 13.2847 -67.9650 145° Southeast  Level FlightAware Approximate
Thu 08:12:00 AM 13.1748 -67.8852 145° Southeast  Level FlightAware Approximate
Thu 08:13:00 AM 13.0648 -67.8055 145° Southeast  Level FlightAware Approximate
Thu 08:14:00 AM 12.9548 -67.7258 145° Southeast  Level FlightAware Approximate
Thu 08:15:00 AM 12.8448 -67.6462 145° Southeast  Level FlightAware Approximate
Thu 08:16:00 AM 12.7347 -67.5667 145° Southeast  Level FlightAware Approximate
Thu 08:17:00 AM 12.6246 -67.4872 145° Southeast  Level FlightAware Approximate
Thu 08:18:00 AM 12.5145 -67.4079 145° Southeast  Level FlightAware Approximate
Thu 08:19:00 AM 12.4044 -67.3286 145° Southeast  Level FlightAware Approximate
Thu 08:20:00 AM 12.2942 -67.2493 145° Southeast  Level FlightAware Approximate
Thu 08:21:00 AM 12.1840 -67.1701 145° Southeast  Level FlightAware Approximate
Thu 08:22:00 AM 12.0738 -67.0910 145° Southeast  Level FlightAware Approximate
Thu 08:23:00 AM 11.9636 -67.0120 145° Southeast  Level FlightAware Approximate
Thu 08:24:00 AM 11.8534 -66.9330 145° Southeast  Level FlightAware Approximate
Thu 08:25:00 AM 11.7431 -66.8541 145° Southeast  Level FlightAware Approximate
Thu 08:26:00 AM 11.6328 -66.7752 145° Southeast  Level FlightAware Approximate
Thu 08:27:00 AM 11.5225 -66.6964 145° Southeast  Level FlightAware Approximate
Thu 08:28:00 AM 11.4122 -66.6177 145° Southeast  Level FlightAware Approximate
Thu 08:29:00 AM 11.3018 -66.5390 145° Southeast  Level FlightAware Approximate
Thu 08:30:00 AM 11.1915 -66.4604 145° Southeast  Level FlightAware Approximate
Thu 08:31:00 AM 11.0811 -66.3819 145° Southeast  Level FlightAware Approximate
Thu 08:32:00 AM 10.9707 -66.3034 145° Southeast  Level FlightAware Approximate
Thu 08:33:00 AM 10.8602 -66.2250 145° Southeast  Level FlightAware Approximate
Thu 08:34:00 AM 10.7498 -66.1466 145° Southeast  Level FlightAware Approximate
Thu 08:35:00 AM 10.6393 -66.0683 145° Southeast  Level FlightAware Approximate
Thu 08:36:00 AM 10.5288 -65.9900 145° Southeast  Level FlightAware Approximate
Thu 08:37:00 AM 10.4183 -65.9118 145° Southeast  Level FlightAware Approximate
Thu 08:38:00 AM 10.3078 -65.8337 145° Southeast  Level FlightAware Approximate
Thu 08:39:00 AM 10.1972 -65.7556 145° Southeast  Level FlightAware Approximate
Thu 08:40:00 AM 10.0867 -65.6775 145° Southeast  Level FlightAware Approximate
Thu 08:41:00 AM 9.9761 -65.5996 145° Southeast  Level FlightAware Approximate
Thu 08:42:00 AM 9.8655 -65.5216 145° Southeast  Level FlightAware Approximate
Thu 08:43:00 AM 9.7549 -65.4437 145° Southeast  Level FlightAware Approximate
Thu 08:44:00 AM 9.6442 -65.3659 145° Southeast  Level FlightAware Approximate
Thu 08:45:00 AM 9.5336 -65.2881 145° Southeast  Level FlightAware Approximate
Thu 08:46:00 AM 9.4229 -65.2104 145° Southeast  Level FlightAware Approximate
Thu 08:47:00 AM 9.3122 -65.1328 145° Southeast  Level FlightAware Approximate
Thu 08:48:00 AM 9.2015 -65.0551 145° Southeast  Level FlightAware Approximate
Thu 08:49:00 AM 9.0908 -64.9775 145° Southeast  Level FlightAware Approximate
Thu 08:50:00 AM 8.9800 -64.9000 145° Southeast  Level FlightAware Approximate
Thu 08:51:00 AM 8.8693 -64.8225 145° Southeast  Level FlightAware Approximate
Thu 08:52:00 AM 8.7585 -64.7451 145° Southeast  Level FlightAware Approximate
Thu 08:53:00 AM 8.6477 -64.6677 145° Southeast  Level FlightAware Approximate
Thu 08:54:00 AM 8.5369 -64.5904 145° Southeast  Level FlightAware Approximate
Thu 08:55:00 AM 8.4261 -64.5131 145° Southeast  Level FlightAware Approximate
Thu 08:56:00 AM 8.3153 -64.4358 145° Southeast  Level FlightAware Approximate
Thu 08:57:00 AM 8.2044 -64.3586 145° Southeast  Level FlightAware Approximate
Thu 08:58:00 AM 8.0935 -64.2814 145° Southeast  Level FlightAware Approximate
Thu 08:59:00 AM 7.9827 -64.2043 145° Southeast  Level FlightAware Approximate
Thu 09:00:00 AM 7.8718 -64.1272 145° Southeast  Level FlightAware Approximate
Thu 09:01:00 AM 7.7609 -64.0502 145° Southeast  Level FlightAware Approximate
Thu 09:02:00 AM 7.6500 -63.9732 145° Southeast  Level FlightAware Approximate
Thu 09:03:00 AM 7.5390 -63.8962 145° Southeast  Level FlightAware Approximate
Thu 09:04:00 AM 7.4281 -63.8193 145° Southeast  Level FlightAware Approximate
Thu 09:05:00 AM 7.3171 -63.7424 145° Southeast  Level FlightAware Approximate
Thu 09:06:00 AM 7.2061 -63.6656 146° Southeast  Level FlightAware Approximate
Thu 09:07:00 AM 7.0951 -63.5888 146° Southeast  Level FlightAware Approximate
Thu 09:08:00 AM 6.9841 -63.5120 146° Southeast  Level FlightAware Approximate
Thu 09:09:00 AM 6.8731 -63.4353 146° Southeast  Level FlightAware Approximate
Thu 09:10:00 AM 6.7621 -63.3586 146° Southeast  Level FlightAware Approximate
Thu 09:11:00 AM 6.6511 -63.2819 146° Southeast  Level FlightAware Approximate
Thu 09:12:00 AM 6.5400 -63.2053 146° Southeast  Level FlightAware Approximate
Thu 09:13:00 AM 6.4290 -63.1287 146° Southeast  Level FlightAware Approximate
Thu 09:14:00 AM 6.3179 -63.0521 146° Southeast  Level FlightAware Approximate
Thu 09:15:00 AM 6.2068 -62.9756 146° Southeast  Level FlightAware Approximate
Thu 09:16:00 AM 6.0957 -62.8991 146° Southeast  Level FlightAware Approximate
Thu 09:17:00 AM 5.9846 -62.8226 146° Southeast  Level FlightAware Approximate
Thu 09:18:00 AM 5.8735 -62.7462 146° Southeast  Level FlightAware Approximate
Thu 09:19:00 AM 5.7624 -62.6698 146° Southeast  Level FlightAware Approximate
Thu 09:20:00 AM 5.6513 -62.5934 146° Southeast  Level FlightAware Approximate
Thu 09:21:00 AM 5.5401 -62.5171 146° Southeast  Level FlightAware Approximate
Thu 09:22:00 AM 5.4290 -62.4408 146° Southeast  Level FlightAware Approximate
Thu 09:23:00 AM 5.3178 -62.3645 146° Southeast  Level FlightAware Approximate
Thu 09:24:00 AM 5.2066 -62.2882 146° Southeast  Level FlightAware Approximate
Thu 09:25:00 AM 5.0955 -62.2120 146° Southeast  Level FlightAware Approximate
Thu 09:26:00 AM 4.9843 -62.1358 146° Southeast  Level FlightAware Approximate
Thu 09:27:00 AM 4.8731 -62.0596 146° Southeast  Level FlightAware Approximate
Thu 09:28:00 AM 4.7619 -61.9835 146° Southeast  Level FlightAware Approximate
Thu 09:29:00 AM 4.6507 -61.9073 146° Southeast  Level FlightAware Approximate
Thu 09:30:00 AM 4.5394 -61.8312 146° Southeast  Level FlightAware Approximate
Thu 09:31:00 AM 4.4282 -61.7552 146° Southeast  Level FlightAware Approximate
Thu 09:32:00 AM 4.3170 -61.6791 146° Southeast  Level FlightAware Approximate
Thu 09:33:00 AM 4.2056 -61.6031 146° Southeast  Level FlightAware Approximate
Thu 09:34:00 AM 4.0942 -61.5274 146° Southeast  Level FlightAware Approximate
Thu 09:35:00 AM 3.9827 -61.4517 146° Southeast  Level FlightAware Approximate
Thu 09:36:00 AM 3.8713 -61.3760 146° Southeast  Level FlightAware Approximate
Thu 09:37:00 AM 3.7598 -61.3003 146° Southeast  Level FlightAware Approximate
Thu 09:38:00 AM 3.6483 -61.2246 146° Southeast  Level FlightAware Approximate
Thu 09:39:00 AM 3.5369 -61.1490 146° Southeast  Level FlightAware Approximate
Thu 09:40:00 AM 3.4254 -61.0733 146° Southeast  Level FlightAware Approximate
Thu 09:41:00 AM 3.3139 -60.9977 146° Southeast  Level FlightAware Approximate
Thu 09:42:00 AM 3.2024 -60.9221 146° Southeast  Level FlightAware Approximate
Thu 09:43:00 AM 3.0909 -60.8466 146° Southeast  Level FlightAware Approximate
Thu 09:44:00 AM 2.9794 -60.7710 146° Southeast  Level FlightAware Approximate
Thu 09:45:00 AM 2.8679 -60.6955 146° Southeast  Level FlightAware Approximate
Thu 09:46:00 AM 2.7488 -60.6330 154° Southeast  Level FlightAware Approximate
Thu 09:47:00 AM 2.6282 -60.5730 154° Southeast  Level FlightAware Approximate
Thu 09:48:00 AM 2.5076 -60.5131 154° Southeast  Level FlightAware Approximate
Thu 09:49:00 AM 2.3870 -60.4532 154° Southeast  Level FlightAware Approximate
Thu 09:50:00 AM 2.2665 -60.3932 154° Southeast  Level FlightAware Approximate
Thu 09:51:00 AM 2.1459 -60.3333 154° Southeast  Level FlightAware Approximate
Thu 09:52:00 AM 2.0253 -60.2734 154° Southeast  Level FlightAware Approximate
Thu 09:53:00 AM 1.9047 -60.2136 154° Southeast  Level FlightAware Approximate
Thu 09:54:00 AM 1.7841 -60.1537 154° Southeast  Level FlightAware Approximate
Thu 09:55:00 AM 1.6635 -60.0938 154° Southeast  Level FlightAware Approximate
Thu 09:56:00 AM 1.5429 -60.0339 154° Southeast  Level FlightAware Approximate
Thu 09:57:00 AM 1.4223 -59.9740 154° Southeast  Level FlightAware Approximate
Thu 09:58:00 AM 1.3017 -59.9142 154° Southeast  Level FlightAware Approximate
Thu 09:59:00 AM 1.1811 -59.8543 154° Southeast  Level FlightAware Approximate
Thu 10:00:00 AM 1.0605 -59.7945 154° Southeast  Level FlightAware Approximate
Thu 10:01:00 AM 0.9399 -59.7346 154° Southeast  Level FlightAware Approximate
Thu 10:02:00 AM 0.8193 -59.6748 154° Southeast  Level FlightAware Approximate
Thu 10:03:00 AM 0.6987 -59.6150 154° Southeast  Level FlightAware Approximate
Thu 10:04:00 AM 0.5780 -59.5551 154° Southeast  Level FlightAware Approximate
Thu 10:05:00 AM 0.4574 -59.4953 154° Southeast  Level FlightAware Approximate
Thu 10:06:00 AM 0.3368 -59.4355 154° Southeast  Level FlightAware Approximate
Thu 10:07:00 AM 0.2162 -59.3757 154° Southeast  Level FlightAware Approximate
Thu 10:08:00 AM 0.0956 -59.3158 154° Southeast  Level FlightAware Approximate
Thu 10:09:00 AM -0.0250 -59.2560 154° Southeast  Level FlightAware Approximate
Thu 10:10:00 AM -0.1456 -59.1962 154° Southeast  Level FlightAware Approximate
Thu 10:11:00 AM -0.2662 -59.1364 154° Southeast  Level FlightAware Approximate
Thu 10:12:00 AM -0.3868 -59.0766 154° Southeast  Level FlightAware Approximate
Thu 10:13:00 AM -0.5074 -59.0167 154° Southeast  Level FlightAware Approximate
Thu 10:14:00 AM -0.6281 -58.9569 154° Southeast  Level FlightAware Approximate
Thu 10:15:00 AM -0.7487 -58.8971 154° Southeast  Level FlightAware Approximate
Thu 10:16:00 AM -0.8693 -58.8372 154° Southeast  Level FlightAware Approximate
Thu 10:17:00 AM -0.9899 -58.7774 154° Southeast  Level FlightAware Approximate
Thu 10:18:00 AM -1.1105 -58.7175 154° Southeast  Level FlightAware Approximate
Thu 10:19:00 AM -1.2311 -58.6577 154° Southeast  Level FlightAware Approximate
Thu 10:20:00 AM -1.3517 -58.5979 154° Southeast  Level FlightAware Approximate
Thu 10:21:00 AM -1.4723 -58.5380 154° Southeast  Level FlightAware Approximate
Thu 10:22:00 AM -1.5929 -58.4781 154° Southeast  Level FlightAware Approximate
Thu 10:23:00 AM -1.7135 -58.4183 154° Southeast  Level FlightAware Approximate
Thu 10:24:00 AM -1.8341 -58.3584 154° Southeast  Level FlightAware Approximate
Thu 10:25:00 AM -1.9547 -58.2985 154° Southeast  Level FlightAware Approximate
Thu 10:26:00 AM -2.0753 -58.2386 154° Southeast  Level FlightAware Approximate
Thu 10:27:00 AM -2.1959 -58.1787 154° Southeast  Level FlightAware Approximate
Thu 10:28:00 AM -2.3165 -58.1188 154° Southeast  Level FlightAware Approximate
Thu 10:29:00 AM -2.4371 -58.0588 154° Southeast  Level FlightAware Approximate
Thu 10:30:00 AM -2.5576 -57.9989 154° Southeast  Level FlightAware Approximate
Thu 10:31:00 AM -2.6782 -57.9389 154° Southeast  Level FlightAware Approximate
Thu 10:32:00 AM -2.7988 -57.8790 154° Southeast  Level FlightAware Approximate
Thu 10:33:00 AM -2.9194 -57.8190 154° Southeast  Level FlightAware Approximate
Thu 10:34:00 AM -3.0399 -57.7590 154° Southeast  Level FlightAware Approximate
Thu 10:35:00 AM -3.1605 -57.6990 154° Southeast  Level FlightAware Approximate
Thu 10:36:00 AM -3.2811 -57.6390 154° Southeast  Level FlightAware Approximate
Thu 10:37:00 AM -3.4016 -57.5790 154° Southeast  Level FlightAware Approximate
Thu 10:38:00 AM -3.5222 -57.5189 154° Southeast  Level FlightAware Approximate
Thu 10:39:00 AM -3.6427 -57.4589 154° Southeast  Level FlightAware Approximate
Thu 10:40:00 AM -3.7633 -57.3988 154° Southeast  Level FlightAware Approximate
Thu 10:41:00 AM -3.8838 -57.3387 154° Southeast  Level FlightAware Approximate
Thu 10:42:00 AM -4.0044 -57.2786 154° Southeast  Level FlightAware Approximate
Thu 10:43:00 AM -4.1249 -57.2185 154° Southeast  Level FlightAware Approximate
Thu 10:44:00 AM -4.2454 -57.1583 154° Southeast  Level FlightAware Approximate
Thu 10:45:00 AM -4.3660 -57.0982 154° Southeast  Level FlightAware Approximate
Thu 10:46:00 AM -4.4865 -57.0380 154° Southeast  Level FlightAware Approximate
Thu 10:47:00 AM -4.6070 -56.9778 154° Southeast  Level FlightAware Approximate
Thu 10:48:00 AM -4.7275 -56.9176 154° Southeast  Level FlightAware Approximate
Thu 10:49:00 AM -4.8480 -56.8573 154° Southeast  Level FlightAware Approximate
Thu 10:50:00 AM -4.9685 -56.7971 154° Southeast  Level FlightAware Approximate
Thu 10:51:00 AM -5.0890 -56.7368 154° Southeast  Level FlightAware Approximate
Thu 10:52:00 AM -5.2095 -56.6765 154° Southeast  Level FlightAware Approximate
Thu 10:53:00 AM -5.3300 -56.6161 154° Southeast  Level FlightAware Approximate
Thu 10:54:00 AM -5.4505 -56.5558 153° Southeast  Level FlightAware Approximate
Thu 10:55:00 AM -5.5709 -56.4954 153° Southeast  Level FlightAware Approximate
Thu 10:56:00 AM -5.6914 -56.4350 153° Southeast  Level FlightAware Approximate
Thu 10:57:00 AM -5.8119 -56.3746 153° Southeast  Level FlightAware Approximate
Thu 10:58:00 AM -5.9323 -56.3141 153° Southeast  Level FlightAware Approximate
Thu 10:59:00 AM -6.0528 -56.2536 153° Southeast  Level FlightAware Approximate
Thu 11:00:00 AM -6.1732 -56.1931 153° Southeast  Level FlightAware Approximate
Thu 11:01:00 AM -6.2936 -56.1326 153° Southeast  Level FlightAware Approximate
Thu 11:02:00 AM -6.4141 -56.0720 153° Southeast  Level FlightAware Approximate
Thu 11:03:00 AM -6.5345 -56.0114 153° Southeast  Level FlightAware Approximate
Thu 11:04:00 AM -6.6549 -55.9508 153° Southeast  Level FlightAware Approximate
Thu 11:05:00 AM -6.7753 -55.8902 153° Southeast  Level FlightAware Approximate
Thu 11:06:00 AM -6.8957 -55.8295 153° Southeast  Level FlightAware Approximate
Thu 11:07:00 AM -7.0161 -55.7688 153° Southeast  Level FlightAware Approximate
Thu 11:08:00 AM -7.1365 -55.7080 153° Southeast  Level FlightAware Approximate
Thu 11:09:00 AM -7.2568 -55.6472 153° Southeast  Level FlightAware Approximate
Thu 11:10:00 AM -7.3772 -55.5864 153° Southeast  Level FlightAware Approximate
Thu 11:11:00 AM -7.4976 -55.5256 153° Southeast  Level FlightAware Approximate
Thu 11:12:00 AM -7.6179 -55.4647 153° Southeast  Level FlightAware Approximate
Thu 11:13:00 AM -7.7383 -55.4038 153° Southeast  Level FlightAware Approximate
Thu 11:14:00 AM -7.8586 -55.3428 153° Southeast  Level FlightAware Approximate
Thu 11:15:00 AM -7.9789 -55.2819 153° Southeast  Level FlightAware Approximate
Thu 11:16:00 AM -8.0992 -55.2209 153° Southeast  Level FlightAware Approximate
Thu 11:17:00 AM -8.2195 -55.1598 153° Southeast  Level FlightAware Approximate
Thu 11:18:00 AM -8.3398 -55.0987 153° Southeast  Level FlightAware Approximate
Thu 11:19:00 AM -8.4601 -55.0376 153° Southeast  Level FlightAware Approximate
Thu 11:20:00 AM -8.5804 -54.9764 153° Southeast  Level FlightAware Approximate
Thu 11:21:00 AM -8.7007 -54.9152 153° Southeast  Level FlightAware Approximate
Thu 11:22:00 AM -8.8209 -54.8540 153° Southeast  Level FlightAware Approximate
Thu 11:23:00 AM -8.9412 -54.7927 153° Southeast  Level FlightAware Approximate
Thu 11:24:00 AM -9.0614 -54.7314 153° Southeast  Level FlightAware Approximate
Thu 11:25:00 AM -9.1817 -54.6700 153° Southeast  Level FlightAware Approximate
Thu 11:26:00 AM -9.3019 -54.6086 153° Southeast  Level FlightAware Approximate
Thu 11:27:00 AM -9.4221 -54.5471 153° Southeast  Level FlightAware Approximate
Thu 11:28:00 AM -9.5423 -54.4856 153° Southeast  Level FlightAware Approximate
Thu 11:29:00 AM -9.6625 -54.4241 153° Southeast  Level FlightAware Approximate
Thu 11:30:00 AM -9.7826 -54.3625 153° Southeast  Level FlightAware Approximate
Thu 11:31:00 AM -9.9028 -54.3009 153° Southeast  Level FlightAware Approximate
Thu 11:32:00 AM -10.0230 -54.2392 153° Southeast  Level FlightAware Approximate
Thu 11:33:00 AM -10.1431 -54.1775 153° Southeast  Level FlightAware Approximate
Thu 11:34:00 AM -10.2632 -54.1158 153° Southeast  Level FlightAware Approximate
Thu 11:35:00 AM -10.3834 -54.0540 153° Southeast  Level FlightAware Approximate
Thu 11:36:00 AM -10.5035 -53.9921 153° Southeast  Level FlightAware Approximate
Thu 11:37:00 AM -10.6236 -53.9302 153° Southeast  Level FlightAware Approximate
Thu 11:38:00 AM -10.7436 -53.8683 153° Southeast  Level FlightAware Approximate
Thu 11:39:00 AM -10.8637 -53.8063 153° Southeast  Level FlightAware Approximate
Thu 11:40:00 AM -10.9838 -53.7442 153° Southeast  Level FlightAware Approximate
Thu 11:41:00 AM -11.1038 -53.6821 153° Southeast  Level FlightAware Approximate
Thu 11:42:00 AM -11.2238 -53.6199 153° Southeast  Level FlightAware Approximate
Thu 11:43:00 AM -11.3439 -53.5577 153° Southeast  Level FlightAware Approximate
Thu 11:44:00 AM -11.4639 -53.4955 153° Southeast  Level FlightAware Approximate
Thu 11:45:00 AM -11.5838 -53.4332 153° Southeast  Level FlightAware Approximate
Thu 11:46:00 AM -11.7038 -53.3708 153° Southeast  Level FlightAware Approximate
Thu 11:47:00 AM -11.8238 -53.3084 153° Southeast  Level FlightAware Approximate
Thu 11:48:00 AM -11.9438 -53.2459 153° Southeast  Level FlightAware Approximate
Thu 11:49:00 AM -12.0637 -53.1834 153° Southeast  Level FlightAware Approximate
Thu 11:50:00 AM -12.1836 -53.1208 153° Southeast  Level FlightAware Approximate
Thu 11:51:00 AM -12.3035 -53.0582 153° Southeast  Level FlightAware Approximate
Thu 11:52:00 AM -12.4234 -52.9955 153° Southeast  Level FlightAware Approximate
Thu 11:53:00 AM -12.5433 -52.9327 153° Southeast  Level FlightAware Approximate
Thu 11:54:00 AM -12.6632 -52.8699 153° Southeast  Level FlightAware Approximate
Thu 11:55:00 AM -12.7830 -52.8070 153° Southeast  Level FlightAware Approximate
Thu 11:56:00 AM -12.9029 -52.7441 153° Southeast  Level FlightAware Approximate
Thu 11:57:00 AM -13.0227 -52.6811 153° Southeast  Level FlightAware Approximate
Thu 11:58:00 AM -13.1425 -52.6181 153° Southeast  Level FlightAware Approximate
Thu 11:59:00 AM -13.2623 -52.5549 153° Southeast  Level FlightAware Approximate
Thu 12:00:00 PM -13.3821 -52.4918 153° Southeast  Level FlightAware Approximate
Thu 12:01:00 PM -13.5018 -52.4285 153° Southeast  Level FlightAware Approximate
Thu 12:02:00 PM -13.6216 -52.3652 153° Southeast  Level FlightAware Approximate
Thu 12:03:00 PM -13.7413 -52.3018 153° Southeast  Level FlightAware Approximate
Thu 12:04:00 PM -13.8610 -52.2384 153° Southeast  Level FlightAware Approximate
Thu 12:05:00 PM -13.9807 -52.1749 153° Southeast  Level FlightAware Approximate
Thu 12:06:00 PM -14.1004 -52.1114 153° Southeast  Level FlightAware Approximate
Thu 12:07:00 PM -14.2200 -52.0477 153° Southeast  Level FlightAware Approximate
Thu 12:08:00 PM -14.3397 -51.9840 153° Southeast  Level FlightAware Approximate
Thu 12:09:00 PM -14.4593 -51.9203 153° Southeast  Level FlightAware Approximate
Thu 12:10:00 PM -14.5789 -51.8564 153° Southeast  Level FlightAware Approximate
Thu 12:11:00 PM -14.6985 -51.7925 153° Southeast  Level FlightAware Approximate
Thu 12:12:00 PM -14.8181 -51.7285 153° Southeast  Level FlightAware Approximate
Thu 12:13:00 PM -14.9377 -51.6645 153° Southeast  Level FlightAware Approximate
Thu 12:14:00 PM -15.0572 -51.6004 153° Southeast  Level FlightAware Approximate
Thu 12:15:00 PM -15.1767 -51.5362 153° Southeast  Level FlightAware Approximate
Thu 12:16:00 PM -15.2962 -51.4719 153° Southeast  Level FlightAware Approximate
Thu 12:17:00 PM -15.4157 -51.4076 153° Southeast  Level FlightAware Approximate
Thu 12:18:00 PM -15.5352 -51.3432 153° Southeast  Level FlightAware Approximate
Thu 12:19:00 PM -15.6546 -51.2787 153° Southeast  Level FlightAware Approximate
Thu 12:20:00 PM -15.7741 -51.2141 153° Southeast  Level FlightAware Approximate
Thu 12:21:00 PM -15.8935 -51.1495 153° Southeast  Level FlightAware Approximate
Thu 12:22:00 PM -16.0129 -51.0848 152° Southeast  Level FlightAware Approximate
Thu 12:23:00 PM -16.1322 -51.0200 152° Southeast  Level FlightAware Approximate
Thu 12:24:00 PM -16.2516 -50.9551 152° Southeast  Level FlightAware Approximate
Thu 12:25:00 PM -16.3709 -50.8902 152° Southeast  Level FlightAware Approximate
Thu 12:26:00 PM -16.4902 -50.8251 152° Southeast  Level FlightAware Approximate
Thu 12:27:00 PM -16.6095 -50.7600 152° Southeast  Level FlightAware Approximate
Thu 12:28:00 PM -16.7288 -50.6948 152° Southeast  Level FlightAware Approximate
Thu 12:29:00 PM -16.8480 -50.6296 152° Southeast  Level FlightAware Approximate
Thu 12:30:00 PM -16.9673 -50.5642 152° Southeast  Level FlightAware Approximate
Thu 12:31:00 PM -17.0865 -50.4988 152° Southeast  Level FlightAware Approximate
Thu 12:32:00 PM -17.2057 -50.4333 152° Southeast  Level FlightAware Approximate
Thu 12:33:00 PM -17.3248 -50.3677 152° Southeast  Level FlightAware Approximate
Thu 12:34:00 PM -17.4440 -50.3020 152° Southeast  Level FlightAware Approximate
Thu 12:35:00 PM -17.5631 -50.2362 152° Southeast  Level FlightAware Approximate
Thu 12:36:00 PM -17.6822 -50.1703 152° Southeast  Level FlightAware Approximate
Thu 12:37:00 PM -17.8013 -50.1044 152° Southeast  Level FlightAware Approximate
Thu 12:38:00 PM -17.9204 -50.0384 152° Southeast  Level FlightAware Approximate
Thu 12:39:00 PM -18.0394 -49.9723 152° Southeast  Level FlightAware Approximate
Thu 12:40:00 PM -18.1584 -49.9060 152° Southeast  Level FlightAware Approximate
Thu 12:41:00 PM -18.2774 -49.8397 152° Southeast  Level FlightAware Approximate
Thu 12:42:00 PM -18.3964 -49.7733 152° Southeast  Level FlightAware Approximate
Thu 12:43:00 PM -18.5153 -49.7069 152° Southeast  Level FlightAware Approximate
Thu 12:44:00 PM -18.6343 -49.6403 152° Southeast  Level FlightAware Approximate
Thu 12:45:00 PM -18.7532 -49.5736 152° Southeast  Level FlightAware Approximate
Thu 12:46:00 PM -18.8720 -49.5068 152° Southeast  Level FlightAware Approximate
Thu 12:47:00 PM -18.9909 -49.4400 152° Southeast  Level FlightAware Approximate
Thu 12:47:27 PM -19.2950 -49.3340 152° Southeast 467 537 35,000  Level FlightAware ADS-B
Thu 12:48:00 PM -19.1097 -49.3730 152° Southeast  Level FlightAware Approximate
Thu 12:48:07 PM -19.3720 -49.2920 153° Southeast 465 535 35,000  Level FlightAware ADS-B
Thu 12:48:52 PM -19.4570 -49.2450 152° Southeast 464 534 35,000  Level FlightAware ADS-B
Thu 12:49:32 PM -19.4930 -49.2250 152° Southeast 466 536 35,000  Level FlightAware ADS-B
Thu 12:50:07 PM -19.5520 -49.1930 153° Southeast 468 539 35,000  Level FlightAware ADS-B
Thu 12:51:02 PM -19.6600 -49.1330 152° Southeast 470 541 35,000  Level FlightAware ADS-B
Thu 12:51:47 PM -19.7930 -49.0580 152° Southeast 470 541 35,000  Level FlightAware ADS-B
Thu 12:52:27 PM -19.8690 -49.0170 153° Southeast 470 541 35,000  Level FlightAware ADS-B
Thu 12:53:12 PM -19.9580 -48.9670 152° Southeast 470 541 35,000  Level FlightAware ADS-B
Thu 12:54:12 PM -20.0360 -48.9230 152° Southeast 471 542 35,000  Level FlightAware ADS-B
Thu 12:54:52 PM -20.1110 -48.8820 153° Southeast 472 543 35,000  Level FlightAware ADS-B
Thu 12:55:32 PM -20.1910 -48.8360 152° Southeast 469 540 35,000  Level FlightAware ADS-B
Thu 12:56:17 PM -20.2740 -48.7900 153° Southeast 469 540 35,000  Level FlightAware ADS-B
Thu 12:56:52 PM -20.3370 -48.7440 146° Southeast 474 545 35,000  Level FlightAware ADS-B
Thu 12:57:42 PM -20.4100 -48.6590 133° Southeast 476 548 35,000  Level FlightAware ADS-B
Thu 12:58:22 PM -20.4720 -48.5860 132° Southeast 476 548 35,000  Level FlightAware ADS-B
Thu 12:59:07 PM -20.5340 -48.5120 132° Southeast 477 549 35,000  Level FlightAware ADS-B
Thu 12:59:42 PM -20.5920 -48.4420 132° Southeast 477 549 35,000  Level FlightAware ADS-B
Thu 01:00:27 PM -20.6550 -48.3660 132° Southeast 477 549 35,000  Level FlightAware ADS-B
Thu 01:01:12 PM -20.7510 -48.2490 131° Southeast 477 549 35,000  Level FlightAware ADS-B
Thu 01:01:52 PM -20.8090 -48.1810 132° Southeast 477 549 35,000  Level FlightAware ADS-B
Thu 01:02:37 PM -20.8750 -48.1010 131° Southeast 477 549 35,000  Level FlightAware ADS-B
Thu 01:03:17 PM -20.9360 -48.0260 131° Southeast 478 550 35,000  Level FlightAware ADS-B
Thu 01:03:57 PM -20.9940 -47.9570 132° Southeast 478 550 35,000  Level FlightAware ADS-B
Thu 01:04:42 PM -21.0580 -47.8790 131° Southeast 479 551 35,000  Level FlightAware ADS-B
Thu 01:05:22 PM -21.1180 -47.8080 132° Southeast 478 550 35,000  Level FlightAware ADS-B
Thu 01:06:07 PM -21.2020 -47.7470 146° Southeast 472 543 35,000  Level FlightAware ADS-B
Thu 01:06:47 PM -21.2800 -47.7070 154° Southeast 482 555 35,000  Level FlightAware ADS-B
Thu 01:07:27 PM -21.3620 -47.6650 154° Southeast 482 555 35,000 -1,271 Level FlightAware ADS-B
Thu 01:08:12 PM -21.4520 -47.6180 154° Southeast 482 555 33,200 -2,965 Descending FlightAware ADS-B
Thu 01:08:52 PM -21.5330 -47.5770 155° Southeast 490 564 30,800 -3,375 Descending FlightAware ADS-B
Thu 01:09:32 PM -21.6160 -47.5360 155° Southeast 479 551 28,700 -2,965 Descending FlightAware ADS-B
Thu 01:10:17 PM -21.7060 -47.4900 155° Southeast 457 526 26,600 -3,035 Descending FlightAware ADS-B
Thu 01:10:57 PM -21.7810 -47.4510 154° Southeast 448 516 24,400 -2,824 Descending FlightAware ADS-B
Thu 01:11:42 PM -21.8620 -47.4090 154° Southeast 426 490 22,600 -1,650 Descending FlightAware ADS-B
Thu 01:12:17 PM -21.9180 -47.3790 154° Southeast 419 482 22,200 -282 Descending FlightAware ADS-B
Thu 01:13:07 PM -21.9920 -47.3400 154° Southeast 419 482 22,200  Level FlightAware ADS-B
Thu 01:13:47 PM -22.0510 -47.3090 154° Southeast 419 482 22,200 -2,325 Level FlightAware ADS-B
Thu 01:14:07 PM -22.1150 -47.3300 197° South 19,300 -4,650 Descending FlightAware ADS-B
Thu 01:14:27 PM -22.1460 -47.3230 168° South 375 432 19,100 -1,200 Descending FlightAware ADS-B
Thu 01:15:07 PM -22.2130 -47.3080 168° South 382 440 18,100 -706 Descending FlightAware ADS-B
Thu 01:15:52 PM -22.2830 -47.2900 167° South 382 440 18,100 -2,188 Level FlightAware ADS-B
Thu 01:16:32 PM -22.3640 -47.2720 168° South 361 415 15,000 -3,280 Descending FlightAware ADS-B
Thu 01:17:07 PM -22.4150 -47.2590 167° South 364 419 14,000 -750 Descending FlightAware ADS-B
Thu 01:17:52 PM -22.4820 -47.2430 168° South 364 419 14,000 -1,768 Level FlightAware ADS-B
Thu 01:18:42 PM -22.5790 -47.2230 169° South 331 381 11,200 -2,267 Descending FlightAware ADS-B
Thu 01:19:22 PM -22.6350 -47.2340 190° South 303 349 10,600 -776 Descending FlightAware ADS-B
Thu 01:20:07 PM -22.6940 -47.2460 191° South 284 327 10,100 -686 Descending FlightAware ADS-B
Thu 01:20:32 PM -22.7230 -47.2530 193° South 284 327 9,800 -764 Descending FlightAware ADS-B
Thu 01:21:02 PM -22.7650 -47.2620 191° South 288 331 9,400 -764 Descending FlightAware ADS-B
Thu 01:21:27 PM -22.7980 -47.2690 191° South 287 330 9,100 -686 Descending FlightAware ADS-B
Thu 01:21:37 PM -22.8100 -47.2720 193° South 285 328 9,000 -436 Descending FlightAware ADS-B
Thu 01:22:22 PM -22.8630 -47.2840 192° South 274 315 8,700 -800 Descending FlightAware ADS-B
Thu 01:22:37 PM -22.8830 -47.2880 190° South 8,200 -1,400 Descending FlightAware ADS-B
Thu 01:22:52 PM -22.9020 -47.2950 199° South 244 281 8,000 -400 Descending FlightAware ADS-B
Thu 01:23:07 PM -22.9160 -47.3030 208° Southwest 230 265 8,000  Level FlightAware ADS-B
Thu 01:23:37 PM -22.9440 -47.3220 212° Southwest 238 274 8,000  Level FlightAware ADS-B
Thu 01:24:02 PM -22.9690 -47.3320 200° South 239 275 8,000  Level FlightAware ADS-B
Thu 01:24:32 PM -22.9980 -47.3160 153° Southeast 244 281 8,000  Level FlightAware ADS-B
Thu 01:24:57 PM -23.0170 -47.2910 130° Southeast 244 281 8,000  Level FlightAware ADS-B
Thu 01:25:27 PM -23.0390 -47.2630 130° Southeast 243 280 8,000  Level FlightAware ADS-B
Thu 01:25:42 PM -23.0490 -47.2490 128° Southeast 244 281 8,000  Level FlightAware ADS-B
Thu 01:26:07 PM -23.0660 -47.2260 129° Southeast 244 281 8,000  Level FlightAware ADS-B
Thu 01:26:22 PM -23.0780 -47.2110 131° Southeast 243 280 8,000  Level FlightAware ADS-B
Thu 01:26:52 PM -23.0980 -47.1830 128° Southeast 243 280 8,000  Level FlightAware ADS-B
Thu 01:27:07 PM -23.1090 -47.1700 133° Southeast 244 281 8,000 -150 Level FlightAware ADS-B
Thu 01:27:32 PM -23.1260 -47.1460 128° Southeast 243 280 7,900 -873 Descending FlightAware ADS-B
Thu 01:28:02 PM -23.1490 -47.1160 130° Southeast 241 277 7,200 -1,091 Descending FlightAware ADS-B
Thu 01:28:27 PM -23.1660 -47.0930 129° Southeast 224 258 6,900 -436 Descending FlightAware ADS-B
Thu 01:28:57 PM -23.1810 -47.0680 123° Southeast 202 232 6,800 -545 Descending FlightAware ADS-B
Thu 01:29:22 PM -23.1840 -47.0420 97° East 200 230 6,400 -873 Descending FlightAware ADS-B
Thu 01:29:52 PM -23.1850 -47.0120 92° East 200 230 6,000 -800 Descending FlightAware ADS-B
Thu 01:30:07 PM -23.1780 -47.0000 58° Northeast 199 229 5,800 -800 Descending FlightAware ADS-B
Thu 01:30:22 PM -23.1650 -46.9940 23° Northeast 198 228 5,600 -720 Descending FlightAware ADS-B
Thu 01:30:32 PM -23.1560 -46.9940 360° North 195 224 5,500 -600 Descending FlightAware ADS-B
Thu 01:30:42 PM -23.1490 -46.9940 360° North 195 224 5,400 -600 Descending FlightAware ADS-B
Thu 01:31:02 PM -23.1300 -46.9940 360° North 193 222 5,200 -686 Descending FlightAware ADS-B
Thu 01:31:17 PM -23.1160 -46.9940 360° North 190 219 5,000 -600 Descending FlightAware ADS-B
Thu 01:31:32 PM -23.1050 -47.0000 333° Northwest 191 220 4,900 -240 Descending FlightAware ADS-B
Thu 01:31:42 PM -23.0980 -47.0080 314° West 189 217 4,900 -480 Level FlightAware ADS-B
Thu 01:31:57 PM -23.0910 -47.0190 305° West 191 220 4,700 -1,200 Descending FlightAware ADS-B
Thu 01:32:27 PM -23.0750 -47.0410 308° West 197 227 4,000 -1,300 Descending FlightAware ADS-B
Thu 01:32:57 PM -23.0580 -47.0630 310° West 182 209 3,400 -1,091 Descending FlightAware ADS-B
Thu 01:33:22 PM -23.0450 -47.0810 308° West 163 188 3,000 -500 Descending FlightAware ADS-B
Thu 01:33:57 PM -23.0310 -47.1020 306° West 163 188 2,900 -171 Descending FlightAware ADS-B
Thu 01:36:00 PM -23.0000 -47.1333 160° South  Level FlightAware Approximate
Thu 01:37:00 PM -23.0082 -47.1347 160° South  Level Estimated
Thu 01:38:00 PM -23.0082 -47.1347 160° South  Level Estimated
Thu 01:39:00 PM -23.0082 -47.1347 160° South  Level Estimated
Thu 01:40:00 PM -23.0082 -47.1347 160° South  Level Estimated

Login

Don't have an account? Register now (free) for customized features, flight alerts, and more!